sensor_id;sensor_type;location;lat;lon;timestamp;temperature;humidity
9810;DHT22;4944;52.514;13.192;2023-02-01T00:01:15;4.70;99.90
9810;DHT22;4944;52.514;13.192;2023-02-01T00:03:42;4.70;99.90
9810;DHT22;4944;52.514;13.192;2023-02-01T00:06:09;4.80;99.90
9810;DHT22;4944;52.514;13.192;2023-02-01T00:08:36;4.80;99.90
9810;DHT22;4944;52.514;13.192;2023-02-01T00:11:04;4.90;99.90
9810;DHT22;4944;52.514;13.192;2023-02-01T00:13:34;4.90;99.90
9810;DHT22;4944;52.514;13.192;2023-02-01T00:16:04;4.90;99.90
9810;DHT22;4944;52.514;13.192;2023-02-01T00:18:31;4.90;99.90
9810;DHT22;4944;52.514;13.192;2023-02-01T00:20:58;4.90;99.90
9810;DHT22;4944;52.514;13.192;2023-02-01T00:23:25;4.90;99.90
9810;DHT22;4944;52.514;13.192;2023-02-01T00:25:52;4.90;99.90
9810;DHT22;4944;52.514;13.192;2023-02-01T00:28:19;4.90;99.90
9810;DHT22;4944;52.514;13.192;2023-02-01T00:30:56;4.90;99.90
9810;DHT22;4944;52.514;13.192;2023-02-01T00:33:23;4.90;99.90
9810;DHT22;4944;52.514;13.192;2023-02-01T00:35:50;4.90;99.90
9810;DHT22;4944;52.514;13.192;2023-02-01T00:38:17;4.80;99.90
9810;DHT22;4944;52.514;13.192;2023-02-01T00:40:44;4.80;99.90
9810;DHT22;4944;52.514;13.192;2023-02-01T00:43:11;4.70;99.90
9810;DHT22;4944;52.514;13.192;2023-02-01T00:45:37;4.70;99.90
9810;DHT22;4944;52.514;13.192;2023-02-01T00:48:06;4.60;99.90
9810;DHT22;4944;52.514;13.192;2023-02-01T00:50:33;4.60;99.90
9810;DHT22;4944;52.514;13.192;2023-02-01T00:53:00;4.50;99.90
9810;DHT22;4944;52.514;13.192;2023-02-01T00:55:27;4.50;99.90
9810;DHT22;4944;52.514;13.192;2023-02-01T00:57:53;4.40;99.90
9810;DHT22;4944;52.514;13.192;2023-02-01T01:00:20;4.40;99.90
9810;DHT22;4944;52.514;13.192;2023-02-01T01:02:47;4.30;99.90
9810;DHT22;4944;52.514;13.192;2023-02-01T01:05:16;4.30;99.90
9810;DHT22;4944;52.514;13.192;2023-02-01T01:07:43;4.30;99.90
9810;DHT22;4944;52.514;13.192;2023-02-01T01:10:10;4.30;99.90
9810;DHT22;4944;52.514;13.192;2023-02-01T01:12:38;4.20;99.90
9810;DHT22;4944;52.514;13.192;2023-02-01T01:15:06;4.20;99.90
9810;DHT22;4944;52.514;13.192;2023-02-01T01:17:33;4.20;99.90
9810;DHT22;4944;52.514;13.192;2023-02-01T01:20:00;4.20;99.90
9810;DHT22;4944;52.514;13.192;2023-02-01T01:22:28;4.20;99.90
9810;DHT22;4944;52.514;13.192;2023-02-01T01:24:55;4.20;99.90
9810;DHT22;4944;52.514;13.192;2023-02-01T01:27:22;4.20;99.90
9810;DHT22;4944;52.514;13.192;2023-02-01T01:29:50;4.30;99.90
9810;DHT22;4944;52.514;13.192;2023-02-01T01:32:17;4.20;99.90
9810;DHT22;4944;52.514;13.192;2023-02-01T01:34:44;4.30;99.90
9810;DHT22;4944;52.514;13.192;2023-02-01T01:37:11;4.30;99.90
9810;DHT22;4944;52.514;13.192;2023-02-01T01:39:39;4.40;99.90
9810;DHT22;4944;52.514;13.192;2023-02-01T01:42:09;4.40;99.90
9810;DHT22;4944;52.514;13.192;2023-02-01T01:45:02;4.40;99.90
9810;DHT22;4944;52.514;13.192;2023-02-01T01:47:34;4.40;99.90
9810;DHT22;4944;52.514;13.192;2023-02-01T01:50:03;4.40;99.90
9810;DHT22;4944;52.514;13.192;2023-02-01T01:52:30;4.40;99.90
9810;DHT22;4944;52.514;13.192;2023-02-01T01:54:59;4.50;99.90
9810;DHT22;4944;52.514;13.192;2023-02-01T01:57:29;4.40;99.90
9810;DHT22;4944;52.514;13.192;2023-02-01T02:00:03;4.50;99.90
9810;DHT22;4944;52.514;13.192;2023-02-01T02:02:31;4.50;99.90
9810;DHT22;4944;52.514;13.192;2023-02-01T02:04:58;4.50;99.90
9810;DHT22;4944;52.514;13.192;2023-02-01T02:07:28;4.60;99.90
9810;DHT22;4944;52.514;13.192;2023-02-01T02:09:56;4.50;99.90
9810;DHT22;4944;52.514;13.192;2023-02-01T02:12:25;4.50;99.90
9810;DHT22;4944;52.514;13.192;2023-02-01T02:14:52;4.50;99.90
9810;DHT22;4944;52.514;13.192;2023-02-01T02:17:29;4.50;99.90
9810;DHT22;4944;52.514;13.192;2023-02-01T02:26:19;4.50;99.90
9810;DHT22;4944;52.514;13.192;2023-02-01T02:29:15;4.50;99.90
9810;DHT22;4944;52.514;13.192;2023-02-01T02:34:56;4.50;99.90
9810;DHT22;4944;52.514;13.192;2023-02-01T02:37:31;4.50;99.90
9810;DHT22;4944;52.514;13.192;2023-02-01T02:40:08;4.50;99.90
9810;DHT22;4944;52.514;13.192;2023-02-01T02:42:40;4.50;99.90
9810;DHT22;4944;52.514;13.192;2023-02-01T02:45:30;4.50;99.90
9810;DHT22;4944;52.514;13.192;2023-02-01T02:48:20;4.50;99.90
9810;DHT22;4944;52.514;13.192;2023-02-01T02:50:54;4.50;99.90
9810;DHT22;4944;52.514;13.192;2023-02-01T02:53:58;4.50;99.90
9810;DHT22;4944;52.514;13.192;2023-02-01T02:56:44;4.50;99.90
9810;DHT22;4944;52.514;13.192;2023-02-01T02:59:30;4.40;99.90
9810;DHT22;4944;52.514;13.192;2023-02-01T03:02:16;4.50;99.90
9810;DHT22;4944;52.514;13.192;2023-02-01T03:05:01;4.50;99.90
9810;DHT22;4944;52.514;13.192;2023-02-01T03:07:55;4.50;99.90
9810;DHT22;4944;52.514;13.192;2023-02-01T03:10:28;4.60;99.90
9810;DHT22;4944;52.514;13.192;2023-02-01T03:13:01;4.50;99.90
9810;DHT22;4944;52.514;13.192;2023-02-01T03:15:34;4.60;99.90
9810;DHT22;4944;52.514;13.192;2023-02-01T03:18:07;4.60;99.90
9810;DHT22;4944;52.514;13.192;2023-02-01T03:20:37;4.60;99.90
9810;DHT22;4944;52.514;13.192;2023-02-01T03:23:07;4.60;99.90
9810;DHT22;4944;52.514;13.192;2023-02-01T03:25:36;4.60;99.90
9810;DHT22;4944;52.514;13.192;2023-02-01T03:28:04;4.60;99.90
9810;DHT22;4944;52.514;13.192;2023-02-01T03:30:35;4.60;99.90
9810;DHT22;4944;52.514;13.192;2023-02-01T03:33:06;4.60;99.90
9810;DHT22;4944;52.514;13.192;2023-02-01T03:35:41;4.60;99.90
9810;DHT22;4944;52.514;13.192;2023-02-01T03:38:16;4.60;99.90
9810;DHT22;4944;52.514;13.192;2023-02-01T03:40:49;4.60;99.90
9810;DHT22;4944;52.514;13.192;2023-02-01T03:43:18;4.60;99.90
9810;DHT22;4944;52.514;13.192;2023-02-01T03:45:52;4.60;99.90
9810;DHT22;4944;52.514;13.192;2023-02-01T03:48:22;4.70;99.90
9810;DHT22;4944;52.514;13.192;2023-02-01T03:50:53;4.70;99.90
9810;DHT22;4944;52.514;13.192;2023-02-01T03:53:23;4.60;99.90
9810;DHT22;4944;52.514;13.192;2023-02-01T03:55:52;4.70;99.90
9810;DHT22;4944;52.514;13.192;2023-02-01T03:58:21;4.70;99.90
9810;DHT22;4944;52.514;13.192;2023-02-01T04:00:51;4.70;99.90
9810;DHT22;4944;52.514;13.192;2023-02-01T04:03:19;4.70;99.90
9810;DHT22;4944;52.514;13.192;2023-02-01T04:05:47;4.80;99.90
9810;DHT22;4944;52.514;13.192;2023-02-01T04:08:14;4.80;99.90
9810;DHT22;4944;52.514;13.192;2023-02-01T04:10:42;4.80;99.90
9810;DHT22;4944;52.514;13.192;2023-02-01T04:13:09;4.80;99.90
9810;DHT22;4944;52.514;13.192;2023-02-01T04:15:36;4.80;99.90
9810;DHT22;4944;52.514;13.192;2023-02-01T04:18:03;4.80;99.90
9810;DHT22;4944;52.514;13.192;2023-02-01T04:20:30;4.80;99.90
9810;DHT22;4944;52.514;13.192;2023-02-01T04:22:57;4.90;99.90
9810;DHT22;4944;52.514;13.192;2023-02-01T04:25:24;4.90;99.90
9810;DHT22;4944;52.514;13.192;2023-02-01T04:27:52;4.90;99.90
9810;DHT22;4944;52.514;13.192;2023-02-01T04:30:19;4.90;99.90
9810;DHT22;4944;52.514;13.192;2023-02-01T04:32:46;5.00;99.90
9810;DHT22;4944;52.514;13.192;2023-02-01T04:35:13;5.00;99.90
9810;DHT22;4944;52.514;13.192;2023-02-01T04:37:40;5.00;99.90
9810;DHT22;4944;52.514;13.192;2023-02-01T04:40:08;5.00;99.90
9810;DHT22;4944;52.514;13.192;2023-02-01T04:42:35;5.10;99.90
9810;DHT22;4944;52.514;13.192;2023-02-01T04:45:05;5.10;99.90
9810;DHT22;4944;52.514;13.192;2023-02-01T04:47:32;5.10;99.90
9810;DHT22;4944;52.514;13.192;2023-02-01T04:49:59;5.10;99.90
9810;DHT22;4944;52.514;13.192;2023-02-01T04:52:27;5.10;99.90
9810;DHT22;4944;52.514;13.192;2023-02-01T04:54:54;5.10;99.90
9810;DHT22;4944;52.514;13.192;2023-02-01T04:57:23;5.10;99.90
9810;DHT22;4944;52.514;13.192;2023-02-01T04:59:50;5.20;99.90
9810;DHT22;4944;52.514;13.192;2023-02-01T05:02:18;5.10;99.90
9810;DHT22;4944;52.514;13.192;2023-02-01T05:04:45;5.20;99.90
9810;DHT22;4944;52.514;13.192;2023-02-01T05:07:12;5.20;99.90
9810;DHT22;4944;52.514;13.192;2023-02-01T05:09:39;5.20;99.90
9810;DHT22;4944;52.514;13.192;2023-02-01T05:12:06;5.20;99.90
9810;DHT22;4944;52.514;13.192;2023-02-01T05:14:50;5.20;99.90
9810;DHT22;4944;52.514;13.192;2023-02-01T05:17:19;5.20;99.90
9810;DHT22;4944;52.514;13.192;2023-02-01T05:19:45;5.20;99.90
9810;DHT22;4944;52.514;13.192;2023-02-01T05:22:12;5.20;99.90
9810;DHT22;4944;52.514;13.192;2023-02-01T05:24:39;5.20;99.90
9810;DHT22;4944;52.514;13.192;2023-02-01T05:27:06;5.20;99.90
9810;DHT22;4944;52.514;13.192;2023-02-01T05:29:33;5.20;99.90
9810;DHT22;4944;52.514;13.192;2023-02-01T05:32:00;5.30;99.90
9810;DHT22;4944;52.514;13.192;2023-02-01T05:34:28;5.30;99.90
9810;DHT22;4944;52.514;13.192;2023-02-01T05:36:55;5.20;99.90
9810;DHT22;4944;52.514;13.192;2023-02-01T05:39:22;5.20;99.90
9810;DHT22;4944;52.514;13.192;2023-02-01T05:41:49;5.20;99.90
9810;DHT22;4944;52.514;13.192;2023-02-01T05:44:16;5.20;99.90
9810;DHT22;4944;52.514;13.192;2023-02-01T05:46:43;5.20;99.90
9810;DHT22;4944;52.514;13.192;2023-02-01T05:49:10;5.30;99.90
9810;DHT22;4944;52.514;13.192;2023-02-01T05:51:38;5.30;99.90
9810;DHT22;4944;52.514;13.192;2023-02-01T05:54:05;5.30;99.90
9810;DHT22;4944;52.514;13.192;2023-02-01T05:56:32;5.30;99.90
9810;DHT22;4944;52.514;13.192;2023-02-01T05:58:58;5.30;99.90
9810;DHT22;4944;52.514;13.192;2023-02-01T06:01:25;5.30;99.90
9810;DHT22;4944;52.514;13.192;2023-02-01T06:03:52;5.30;99.90
9810;DHT22;4944;52.514;13.192;2023-02-01T06:06:19;5.20;99.90
9810;DHT22;4944;52.514;13.192;2023-02-01T06:08:47;5.20;99.90
9810;DHT22;4944;52.514;13.192;2023-02-01T06:11:14;5.20;99.90
9810;DHT22;4944;52.514;13.192;2023-02-01T06:13:41;5.20;99.90
9810;DHT22;4944;52.514;13.192;2023-02-01T06:16:09;5.10;99.90
9810;DHT22;4944;52.514;13.192;2023-02-01T06:18:36;5.10;99.90
9810;DHT22;4944;52.514;13.192;2023-02-01T06:21:03;5.10;99.90
9810;DHT22;4944;52.514;13.192;2023-02-01T06:23:30;5.10;99.90
9810;DHT22;4944;52.514;13.192;2023-02-01T06:26:03;5.10;99.90
9810;DHT22;4944;52.514;13.192;2023-02-01T06:28:31;5.10;99.90
9810;DHT22;4944;52.514;13.192;2023-02-01T06:31:03;5.10;99.90
9810;DHT22;4944;52.514;13.192;2023-02-01T06:33:32;5.10;99.90
9810;DHT22;4944;52.514;13.192;2023-02-01T06:35:59;5.10;99.90
9810;DHT22;4944;52.514;13.192;2023-02-01T06:38:27;5.10;99.90
9810;DHT22;4944;52.514;13.192;2023-02-01T06:40:55;5.10;99.90
9810;DHT22;4944;52.514;13.192;2023-02-01T06:43:24;5.10;99.90
9810;DHT22;4944;52.514;13.192;2023-02-01T06:45:52;5.10;99.90
9810;DHT22;4944;52.514;13.192;2023-02-01T06:48:19;5.00;99.90
9810;DHT22;4944;52.514;13.192;2023-02-01T06:50:46;5.10;99.90
9810;DHT22;4944;52.514;13.192;2023-02-01T06:53:13;5.10;99.90
9810;DHT22;4944;52.514;13.192;2023-02-01T06:55:40;5.10;99.90
9810;DHT22;4944;52.514;13.192;2023-02-01T06:58:07;5.10;99.90
9810;DHT22;4944;52.514;13.192;2023-02-01T07:00:35;5.10;99.90
9810;DHT22;4944;52.514;13.192;2023-02-01T07:03:02;5.10;99.90
9810;DHT22;4944;52.514;13.192;2023-02-01T07:05:29;5.10;99.90
9810;DHT22;4944;52.514;13.192;2023-02-01T07:07:56;5.10;99.90
9810;DHT22;4944;52.514;13.192;2023-02-01T07:10:23;5.10;99.90
9810;DHT22;4944;52.514;13.192;2023-02-01T07:12:50;5.10;99.90
9810;DHT22;4944;52.514;13.192;2023-02-01T07:15:17;5.10;99.90
9810;DHT22;4944;52.514;13.192;2023-02-01T07:17:45;5.10;99.90
9810;DHT22;4944;52.514;13.192;2023-02-01T07:20:13;5.00;99.90
9810;DHT22;4944;52.514;13.192;2023-02-01T07:22:40;5.00;99.90
9810;DHT22;4944;52.514;13.192;2023-02-01T07:25:07;5.00;99.90
9810;DHT22;4944;52.514;13.192;2023-02-01T07:27:34;5.00;99.90
9810;DHT22;4944;52.514;13.192;2023-02-01T07:30:01;5.00;99.90
9810;DHT22;4944;52.514;13.192;2023-02-01T07:32:28;5.10;99.90
9810;DHT22;4944;52.514;13.192;2023-02-01T07:34:57;5.00;99.90
9810;DHT22;4944;52.514;13.192;2023-02-01T07:37:24;5.00;99.90
9810;DHT22;4944;52.514;13.192;2023-02-01T07:39:51;4.90;99.90
9810;DHT22;4944;52.514;13.192;2023-02-01T07:42:18;4.90;99.90
9810;DHT22;4944;52.514;13.192;2023-02-01T07:44:45;4.80;99.90
9810;DHT22;4944;52.514;13.192;2023-02-01T07:47:12;4.60;99.90
9810;DHT22;4944;52.514;13.192;2023-02-01T07:49:39;4.60;99.90
9810;DHT22;4944;52.514;13.192;2023-02-01T07:52:07;4.60;99.90
9810;DHT22;4944;52.514;13.192;2023-02-01T07:54:36;4.40;99.90
9810;DHT22;4944;52.514;13.192;2023-02-01T07:57:03;4.40;99.90
9810;DHT22;4944;52.514;13.192;2023-02-01T07:59:30;4.30;99.90
9810;DHT22;4944;52.514;13.192;2023-02-01T08:01:57;4.30;99.90
9810;DHT22;4944;52.514;13.192;2023-02-01T08:04:23;4.20;99.90
9810;DHT22;4944;52.514;13.192;2023-02-01T08:06:50;4.20;99.90
9810;DHT22;4944;52.514;13.192;2023-02-01T08:09:18;4.10;99.90
9810;DHT22;4944;52.514;13.192;2023-02-01T08:11:45;4.10;99.90
9810;DHT22;4944;52.514;13.192;2023-02-01T08:14:12;4.10;99.90
9810;DHT22;4944;52.514;13.192;2023-02-01T08:16:39;4.10;99.90
9810;DHT22;4944;52.514;13.192;2023-02-01T08:19:06;4.10;99.90
9810;DHT22;4944;52.514;13.192;2023-02-01T08:21:33;4.10;99.90
9810;DHT22;4944;52.514;13.192;2023-02-01T08:24:08;4.10;99.90
9810;DHT22;4944;52.514;13.192;2023-02-01T08:26:36;4.10;99.90
9810;DHT22;4944;52.514;13.192;2023-02-01T08:29:05;4.10;99.90
9810;DHT22;4944;52.514;13.192;2023-02-01T08:31:32;4.10;99.90
9810;DHT22;4944;52.514;13.192;2023-02-01T08:34:00;4.10;99.90
9810;DHT22;4944;52.514;13.192;2023-02-01T08:36:30;4.10;99.90
9810;DHT22;4944;52.514;13.192;2023-02-01T08:38:57;4.10;99.90
9810;DHT22;4944;52.514;13.192;2023-02-01T08:41:26;4.10;99.90
9810;DHT22;4944;52.514;13.192;2023-02-01T08:43:54;4.20;99.90
9810;DHT22;4944;52.514;13.192;2023-02-01T08:46:22;4.20;99.90
9810;DHT22;4944;52.514;13.192;2023-02-01T08:48:49;4.20;99.90
9810;DHT22;4944;52.514;13.192;2023-02-01T08:51:18;4.10;99.90
9810;DHT22;4944;52.514;13.192;2023-02-01T08:53:46;4.10;99.90
9810;DHT22;4944;52.514;13.192;2023-02-01T08:56:15;4.10;99.90
9810;DHT22;4944;52.514;13.192;2023-02-01T08:58:42;4.10;99.90
9810;DHT22;4944;52.514;13.192;2023-02-01T09:01:14;4.10;99.90
9810;DHT22;4944;52.514;13.192;2023-02-01T09:03:42;4.10;99.90
9810;DHT22;4944;52.514;13.192;2023-02-01T09:06:11;4.10;99.90
9810;DHT22;4944;52.514;13.192;2023-02-01T09:08:39;4.20;99.90
9810;DHT22;4944;52.514;13.192;2023-02-01T09:11:08;4.20;99.90
9810;DHT22;4944;52.514;13.192;2023-02-01T09:13:36;4.20;99.90
9810;DHT22;4944;52.514;13.192;2023-02-01T09:16:04;4.20;99.90
9810;DHT22;4944;52.514;13.192;2023-02-01T09:18:32;4.20;99.90
9810;DHT22;4944;52.514;13.192;2023-02-01T09:21:04;4.30;99.90
9810;DHT22;4944;52.514;13.192;2023-02-01T09:23:31;4.30;99.90
9810;DHT22;4944;52.514;13.192;2023-02-01T09:25:59;4.30;99.90
9810;DHT22;4944;52.514;13.192;2023-02-01T09:28:26;4.30;99.90
9810;DHT22;4944;52.514;13.192;2023-02-01T09:30:55;4.30;99.90
9810;DHT22;4944;52.514;13.192;2023-02-01T09:33:22;4.30;99.90
9810;DHT22;4944;52.514;13.192;2023-02-01T09:35:56;4.30;99.90
9810;DHT22;4944;52.514;13.192;2023-02-01T09:38:23;4.30;99.90
9810;DHT22;4944;52.514;13.192;2023-02-01T09:40:51;4.30;99.90
9810;DHT22;4944;52.514;13.192;2023-02-01T09:43:29;4.30;99.90
9810;DHT22;4944;52.514;13.192;2023-02-01T09:46:10;4.30;99.90
9810;DHT22;4944;52.514;13.192;2023-02-01T09:48:42;4.40;99.90
9810;DHT22;4944;52.514;13.192;2023-02-01T09:51:15;4.40;99.90
9810;DHT22;4944;52.514;13.192;2023-02-01T09:53:45;4.30;99.90
9810;DHT22;4944;52.514;13.192;2023-02-01T09:56:18;4.40;99.90
9810;DHT22;4944;52.514;13.192;2023-02-01T09:58:49;4.30;99.90
9810;DHT22;4944;52.514;13.192;2023-02-01T10:01:20;4.30;99.90
9810;DHT22;4944;52.514;13.192;2023-02-01T10:03:48;4.30;99.90
9810;DHT22;4944;52.514;13.192;2023-02-01T10:06:27;4.30;99.90
9810;DHT22;4944;52.514;13.192;2023-02-01T10:09:09;4.30;99.90
9810;DHT22;4944;52.514;13.192;2023-02-01T10:11:50;4.40;99.90
9810;DHT22;4944;52.514;13.192;2023-02-01T10:14:40;4.40;99.90
9810;DHT22;4944;52.514;13.192;2023-02-01T10:17:19;4.50;99.90
9810;DHT22;4944;52.514;13.192;2023-02-01T10:19:58;4.50;99.90
9810;DHT22;4944;52.514;13.192;2023-02-01T10:22:38;4.50;99.90
9810;DHT22;4944;52.514;13.192;2023-02-01T10:25:14;4.50;99.90
9810;DHT22;4944;52.514;13.192;2023-02-01T10:27:44;4.50;99.90
9810;DHT22;4944;52.514;13.192;2023-02-01T10:30:19;4.50;99.90
9810;DHT22;4944;52.514;13.192;2023-02-01T10:32:48;4.60;99.90
9810;DHT22;4944;52.514;13.192;2023-02-01T10:35:18;4.50;99.90
9810;DHT22;4944;52.514;13.192;2023-02-01T10:37:46;4.50;99.90
9810;DHT22;4944;52.514;13.192;2023-02-01T10:40:17;4.40;99.90
9810;DHT22;4944;52.514;13.192;2023-02-01T10:42:47;4.40;99.90
9810;DHT22;4944;52.514;13.192;2023-02-01T10:45:18;4.40;99.90
9810;DHT22;4944;52.514;13.192;2023-02-01T10:47:47;4.30;99.90
9810;DHT22;4944;52.514;13.192;2023-02-01T10:50:19;4.40;99.90
9810;DHT22;4944;52.514;13.192;2023-02-01T10:52:57;4.40;99.90
9810;DHT22;4944;52.514;13.192;2023-02-01T10:55:39;4.40;99.90
9810;DHT22;4944;52.514;13.192;2023-02-01T10:58:14;4.40;99.90
9810;DHT22;4944;52.514;13.192;2023-02-01T11:00:45;4.40;99.90
9810;DHT22;4944;52.514;13.192;2023-02-01T11:03:33;4.40;99.90
9810;DHT22;4944;52.514;13.192;2023-02-01T11:06:04;4.50;99.90
9810;DHT22;4944;52.514;13.192;2023-02-01T11:08:44;4.60;99.90
9810;DHT22;4944;52.514;13.192;2023-02-01T11:11:12;4.60;99.90
9810;DHT22;4944;52.514;13.192;2023-02-01T11:13:40;4.70;99.90
9810;DHT22;4944;52.514;13.192;2023-02-01T11:16:12;4.80;99.90
9810;DHT22;4944;52.514;13.192;2023-02-01T11:18:39;4.80;99.90
9810;DHT22;4944;52.514;13.192;2023-02-01T11:21:07;4.90;99.90
9810;DHT22;4944;52.514;13.192;2023-02-01T11:23:40;5.00;99.90
9810;DHT22;4944;52.514;13.192;2023-02-01T11:26:11;5.10;99.90
9810;DHT22;4944;52.514;13.192;2023-02-01T11:28:40;5.30;99.90
9810;DHT22;4944;52.514;13.192;2023-02-01T11:31:12;5.40;99.90
9810;DHT22;4944;52.514;13.192;2023-02-01T11:33:47;5.50;99.90
9810;DHT22;4944;52.514;13.192;2023-02-01T11:36:16;5.60;99.90
9810;DHT22;4944;52.514;13.192;2023-02-01T11:38:47;5.60;99.90
9810;DHT22;4944;52.514;13.192;2023-02-01T11:41:23;5.60;99.90
9810;DHT22;4944;52.514;13.192;2023-02-01T11:43:53;5.70;99.90
9810;DHT22;4944;52.514;13.192;2023-02-01T11:46:28;5.70;99.90
9810;DHT22;4944;52.514;13.192;2023-02-01T11:48:56;5.70;99.90
9810;DHT22;4944;52.514;13.192;2023-02-01T11:51:37;5.80;99.90
9810;DHT22;4944;52.514;13.192;2023-02-01T11:54:15;5.70;99.90
9810;DHT22;4944;52.514;13.192;2023-02-01T11:56:51;5.80;99.90
9810;DHT22;4944;52.514;13.192;2023-02-01T11:59:33;5.90;99.90
9810;DHT22;4944;52.514;13.192;2023-02-01T12:02:27;6.10;99.90
9810;DHT22;4944;52.514;13.192;2023-02-01T12:05:18;6.10;99.90
9810;DHT22;4944;52.514;13.192;2023-02-01T12:08:09;6.20;99.90
9810;DHT22;4944;52.514;13.192;2023-02-01T12:10:50;6.30;99.90
9810;DHT22;4944;52.514;13.192;2023-02-01T12:13:32;6.30;99.90
9810;DHT22;4944;52.514;13.192;2023-02-01T12:16:09;6.30;99.90
9810;DHT22;4944;52.514;13.192;2023-02-01T12:22:13;6.20;99.90
9810;DHT22;4944;52.514;13.192;2023-02-01T12:24:59;6.20;99.90
9810;DHT22;4944;52.514;13.192;2023-02-01T12:27:41;6.20;99.90
9810;DHT22;4944;52.514;13.192;2023-02-01T12:30:36;6.20;99.90
9810;DHT22;4944;52.514;13.192;2023-02-01T12:33:13;6.20;99.90
9810;DHT22;4944;52.514;13.192;2023-02-01T12:35:58;6.20;99.90
9810;DHT22;4944;52.514;13.192;2023-02-01T12:38:43;6.20;99.90
9810;DHT22;4944;52.514;13.192;2023-02-01T12:44:12;6.20;99.90
9810;DHT22;4944;52.514;13.192;2023-02-01T12:46:47;6.30;99.90
9810;DHT22;4944;52.514;13.192;2023-02-01T12:49:18;6.20;99.90
9810;DHT22;4944;52.514;13.192;2023-02-01T12:51:52;6.30;99.90
9810;DHT22;4944;52.514;13.192;2023-02-01T12:54:24;6.30;99.90
9810;DHT22;4944;52.514;13.192;2023-02-01T12:56:57;6.30;99.90
9810;DHT22;4944;52.514;13.192;2023-02-01T12:59:31;6.30;99.90
9810;DHT22;4944;52.514;13.192;2023-02-01T13:02:04;6.30;99.90
9810;DHT22;4944;52.514;13.192;2023-02-01T13:04:42;6.30;99.90
9810;DHT22;4944;52.514;13.192;2023-02-01T13:07:16;6.30;99.90
9810;DHT22;4944;52.514;13.192;2023-02-01T13:09:50;6.30;99.90
9810;DHT22;4944;52.514;13.192;2023-02-01T13:12:22;6.30;99.90
9810;DHT22;4944;52.514;13.192;2023-02-01T13:14:55;6.30;99.90
9810;DHT22;4944;52.514;13.192;2023-02-01T13:17:26;6.30;99.90
9810;DHT22;4944;52.514;13.192;2023-02-01T13:19:57;6.30;99.90
9810;DHT22;4944;52.514;13.192;2023-02-01T13:22:28;6.30;99.90
9810;DHT22;4944;52.514;13.192;2023-02-01T13:24:58;6.30;99.90
9810;DHT22;4944;52.514;13.192;2023-02-01T13:27:27;6.30;99.90
9810;DHT22;4944;52.514;13.192;2023-02-01T13:29:58;6.40;99.90
9810;DHT22;4944;52.514;13.192;2023-02-01T13:33:01;6.30;99.90
9810;DHT22;4944;52.514;13.192;2023-02-01T13:35:56;6.30;99.90
9810;DHT22;4944;52.514;13.192;2023-02-01T13:38:46;6.40;99.90
9810;DHT22;4944;52.514;13.192;2023-02-01T13:41:25;6.40;99.90
9810;DHT22;4944;52.514;13.192;2023-02-01T13:43:55;6.40;99.90
9810;DHT22;4944;52.514;13.192;2023-02-01T13:46:24;6.40;99.90
9810;DHT22;4944;52.514;13.192;2023-02-01T13:48:54;6.50;99.90
9810;DHT22;4944;52.514;13.192;2023-02-01T13:51:34;6.40;99.90
9810;DHT22;4944;52.514;13.192;2023-02-01T13:54:02;6.40;99.90
9810;DHT22;4944;52.514;13.192;2023-02-01T13:56:40;6.40;99.90
9810;DHT22;4944;52.514;13.192;2023-02-01T14:08:46;6.30;99.90
9810;DHT22;4944;52.514;13.192;2023-02-01T14:11:49;6.10;99.90
9810;DHT22;4944;52.514;13.192;2023-02-01T14:14:40;6.10;99.90
9810;DHT22;4944;52.514;13.192;2023-02-01T14:17:34;6.00;99.90
9810;DHT22;4944;52.514;13.192;2023-02-01T14:23:28;6.00;99.90
9810;DHT22;4944;52.514;13.192;2023-02-01T14:26:18;6.00;99.90
9810;DHT22;4944;52.514;13.192;2023-02-01T14:28:56;6.00;99.90
9810;DHT22;4944;52.514;13.192;2023-02-01T14:31:41;6.10;99.90
9810;DHT22;4944;52.514;13.192;2023-02-01T14:34:19;6.00;99.90
9810;DHT22;4944;52.514;13.192;2023-02-01T14:36:51;6.10;99.90
9810;DHT22;4944;52.514;13.192;2023-02-01T14:39:30;6.00;99.90
9810;DHT22;4944;52.514;13.192;2023-02-01T14:42:00;6.00;99.90
9810;DHT22;4944;52.514;13.192;2023-02-01T14:44:30;6.10;99.90
9810;DHT22;4944;52.514;13.192;2023-02-01T14:47:29;6.10;99.90
9810;DHT22;4944;52.514;13.192;2023-02-01T14:53:11;6.10;99.90
9810;DHT22;4944;52.514;13.192;2023-02-01T14:55:43;6.20;99.90
9810;DHT22;4944;52.514;13.192;2023-02-01T14:58:17;6.20;99.90
9810;DHT22;4944;52.514;13.192;2023-02-01T15:00:51;6.20;99.90
9810;DHT22;4944;52.514;13.192;2023-02-01T15:03:45;6.20;99.90
9810;DHT22;4944;52.514;13.192;2023-02-01T15:06:29;6.00;99.90
9810;DHT22;4944;52.514;13.192;2023-02-01T15:08:59;5.70;99.90
9810;DHT22;4944;52.514;13.192;2023-02-01T15:11:29;5.50;99.90
9810;DHT22;4944;52.514;13.192;2023-02-01T15:13:56;5.30;99.90
9810;DHT22;4944;52.514;13.192;2023-02-01T15:16:25;5.20;99.90
9810;DHT22;4944;52.514;13.192;2023-02-01T15:19:09;5.00;99.90
9810;DHT22;4944;52.514;13.192;2023-02-01T15:21:44;4.90;99.90
9810;DHT22;4944;52.514;13.192;2023-02-01T15:24:13;4.90;99.90
9810;DHT22;4944;52.514;13.192;2023-02-01T15:26:42;4.80;99.90
9810;DHT22;4944;52.514;13.192;2023-02-01T15:29:11;4.60;99.90
9810;DHT22;4944;52.514;13.192;2023-02-01T15:31:39;4.40;99.90
9810;DHT22;4944;52.514;13.192;2023-02-01T15:34:07;4.30;99.90
9810;DHT22;4944;52.514;13.192;2023-02-01T15:36:36;4.20;99.90
9810;DHT22;4944;52.514;13.192;2023-02-01T15:39:18;4.10;99.90
9810;DHT22;4944;52.514;13.192;2023-02-01T15:41:52;4.00;99.90
9810;DHT22;4944;52.514;13.192;2023-02-01T15:44:27;4.00;99.90
9810;DHT22;4944;52.514;13.192;2023-02-01T15:46:55;4.00;99.90
9810;DHT22;4944;52.514;13.192;2023-02-01T15:49:26;4.00;99.90
9810;DHT22;4944;52.514;13.192;2023-02-01T15:51:57;4.00;99.90
9810;DHT22;4944;52.514;13.192;2023-02-01T15:54:27;3.90;99.90
9810;DHT22;4944;52.514;13.192;2023-02-01T15:56:59;3.80;99.90
9810;DHT22;4944;52.514;13.192;2023-02-01T15:59:40;3.80;99.90
9810;DHT22;4944;52.514;13.192;2023-02-01T16:02:26;3.70;99.90
9810;DHT22;4944;52.514;13.192;2023-02-01T16:04:53;3.50;99.90
9810;DHT22;4944;52.514;13.192;2023-02-01T16:07:26;3.40;99.90
9810;DHT22;4944;52.514;13.192;2023-02-01T16:09:55;3.10;99.90
9810;DHT22;4944;52.514;13.192;2023-02-01T16:12:29;2.90;99.90
9810;DHT22;4944;52.514;13.192;2023-02-01T16:14:56;2.90;99.90
9810;DHT22;4944;52.514;13.192;2023-02-01T16:17:23;2.70;99.90
9810;DHT22;4944;52.514;13.192;2023-02-01T16:19:50;2.70;99.90
9810;DHT22;4944;52.514;13.192;2023-02-01T16:22:17;2.70;99.90
9810;DHT22;4944;52.514;13.192;2023-02-01T16:24:44;2.70;99.90
9810;DHT22;4944;52.514;13.192;2023-02-01T16:27:11;2.70;99.90
9810;DHT22;4944;52.514;13.192;2023-02-01T16:29:39;2.80;99.90
9810;DHT22;4944;52.514;13.192;2023-02-01T16:32:08;2.80;99.90
9810;DHT22;4944;52.514;13.192;2023-02-01T16:34:36;2.80;99.90
9810;DHT22;4944;52.514;13.192;2023-02-01T16:37:03;2.80;99.90
9810;DHT22;4944;52.514;13.192;2023-02-01T16:39:30;2.80;99.90
9810;DHT22;4944;52.514;13.192;2023-02-01T16:41:58;2.90;99.90
9810;DHT22;4944;52.514;13.192;2023-02-01T16:44:25;2.90;99.90
9810;DHT22;4944;52.514;13.192;2023-02-01T16:46:54;2.90;99.90
9810;DHT22;4944;52.514;13.192;2023-02-01T16:49:23;2.90;99.90
9810;DHT22;4944;52.514;13.192;2023-02-01T16:51:51;2.90;99.90
9810;DHT22;4944;52.514;13.192;2023-02-01T16:54:19;3.00;99.90
9810;DHT22;4944;52.514;13.192;2023-02-01T16:56:46;3.00;99.90
9810;DHT22;4944;52.514;13.192;2023-02-01T16:59:13;3.00;99.90
9810;DHT22;4944;52.514;13.192;2023-02-01T17:01:41;3.00;99.90